Strona główna
METAR-TAF:

METAR-TAF

Lotnisko :

Hagåtña, Guam, Stany Zjednoczone

Antonio B. Won Pat International Airport

Szerokość geograficzna: 13-29N, Długość geograficzna: 144-48E, wysokość: 91 m

Aktualna obserwacja pogody

Raport powstał 29 minut temu, godzina 04:54 UTC
Wiatr 18 kt od wschodnio-północny wschód w porywach dochodzący do 24 kt
Temperatura 31°C
Wilgotność 63%
Ciśnienie 1010 hPa
Widzialność: 16.1 km
Rozproszone chmury na wysokości 3000 ft

METAR: PGUM 190454Z 06018G24KT 10SM SCT030 31/23 A2982 RMK AO2 PK WND 06026/0408 SLP090 T03060233

czas: 15:23 (05:23 UTC)

Prognoza

Raport powstał 4 godziny i 13 minut temu, godzina 01:10 UTC
Prognoza ważna od 19 godzina 01 UTC do 20 godzina 06 UTC
Wiatr 17 kt od wschodnio-północny wschód w porywach dochodzący do 25 kt
Widzialność: 10 km
Przerywane chmury na wysokości 2500 ft
Od 19 godzina 0900 UTC
Wiatr 9 kt od wschodnio-północny wschód
Widzialność: 10 km
Mało chmury na wysokości 2200 ft

TAF: PGUM 190110Z 1901/2006 07017G25KT P6SM BKN025 FM190900 07009KT P6SM FEW022

Obserwacja i prognoza pogody dla ponad 4000 lotnisk (raport METAR i TAF).

Dostępne stacje oznaczono żółtymi i czerwonymi punktami na mapie.

Najedź kursorem aby zobaczyć nazwę stacji.

Kliknij aby zobaczyć obserwacje i prognozy pogody.

Aby zmienić mapę: kliknij na zielony przycisk z czarnym krzyżykiem, aby powiększyć; na zielony przycisk z myślnikiem, aby pomniejszyć; na zielone strzałki, aby przejść do map sąsiednich.


METAR-TAF: